sensor_id;sensor_type;location;lat;lon;timestamp;P1;durP1;ratioP1;P2;durP2;ratioP2
12441;SDS011;6285;48.804;9.220;2023-01-16T00:01:19;3.92;;;1.25;;
12441;SDS011;6285;48.804;9.220;2023-01-16T00:03:46;3.25;;;1.38;;
12441;SDS011;6285;48.804;9.220;2023-01-16T00:06:13;2.53;;;1.30;;
12441;SDS011;6285;48.804;9.220;2023-01-16T00:08:40;2.88;;;1.00;;
12441;SDS011;6285;48.804;9.220;2023-01-16T00:11:09;4.72;;;1.40;;
12441;SDS011;6285;48.804;9.220;2023-01-16T00:13:36;2.60;;;1.20;;
12441;SDS011;6285;48.804;9.220;2023-01-16T00:16:04;4.47;;;1.40;;
12441;SDS011;6285;48.804;9.220;2023-01-16T00:18:31;5.50;;;1.17;;
12441;SDS011;6285;48.804;9.220;2023-01-16T00:20:59;4.93;;;1.33;;
12441;SDS011;6285;48.804;9.220;2023-01-16T00:23:26;2.90;;;1.23;;
12441;SDS011;6285;48.804;9.220;2023-01-16T00:25:53;2.05;;;1.23;;
12441;SDS011;6285;48.804;9.220;2023-01-16T00:28:21;2.55;;;1.25;;
12441;SDS011;6285;48.804;9.220;2023-01-16T00:30:48;3.45;;;1.40;;
12441;SDS011;6285;48.804;9.220;2023-01-16T00:33:16;2.88;;;0.98;;
12441;SDS011;6285;48.804;9.220;2023-01-16T00:35:46;2.75;;;0.93;;
12441;SDS011;6285;48.804;9.220;2023-01-16T00:38:13;2.17;;;0.98;;
12441;SDS011;6285;48.804;9.220;2023-01-16T00:40:40;3.58;;;0.95;;
12441;SDS011;6285;48.804;9.220;2023-01-16T00:43:07;2.53;;;1.00;;
12441;SDS011;6285;48.804;9.220;2023-01-16T00:45:36;2.53;;;1.33;;
12441;SDS011;6285;48.804;9.220;2023-01-16T00:48:04;2.28;;;0.95;;
12441;SDS011;6285;48.804;9.220;2023-01-16T00:50:32;2.72;;;1.17;;
12441;SDS011;6285;48.804;9.220;2023-01-16T00:52:59;2.05;;;1.25;;
12441;SDS011;6285;48.804;9.220;2023-01-16T00:55:26;3.05;;;0.90;;
12441;SDS011;6285;48.804;9.220;2023-01-16T00:57:53;2.75;;;1.48;;
12441;SDS011;6285;48.804;9.220;2023-01-16T01:00:20;2.20;;;1.00;;
12441;SDS011;6285;48.804;9.220;2023-01-16T01:02:48;4.15;;;1.10;;
12441;SDS011;6285;48.804;9.220;2023-01-16T01:05:16;2.17;;;0.90;;
12441;SDS011;6285;48.804;9.220;2023-01-16T01:07:43;2.67;;;1.02;;
12441;SDS011;6285;48.804;9.220;2023-01-16T01:10:11;2.03;;;1.08;;
12441;SDS011;6285;48.804;9.220;2023-01-16T01:12:38;3.17;;;1.15;;
12441;SDS011;6285;48.804;9.220;2023-01-16T01:15:05;1.63;;;1.15;;
12441;SDS011;6285;48.804;9.220;2023-01-16T01:17:32;3.03;;;0.95;;
12441;SDS011;6285;48.804;9.220;2023-01-16T01:20:01;2.05;;;0.90;;
12441;SDS011;6285;48.804;9.220;2023-01-16T01:22:28;1.98;;;1.02;;
12441;SDS011;6285;48.804;9.220;2023-01-16T01:24:55;2.00;;;1.33;;
12441;SDS011;6285;48.804;9.220;2023-01-16T01:27:22;2.35;;;1.10;;
12441;SDS011;6285;48.804;9.220;2023-01-16T01:29:49;3.17;;;1.35;;
12441;SDS011;6285;48.804;9.220;2023-01-16T01:32:16;1.88;;;1.05;;
12441;SDS011;6285;48.804;9.220;2023-01-16T01:34:43;3.35;;;1.50;;
12441;SDS011;6285;48.804;9.220;2023-01-16T01:37:12;3.25;;;1.10;;
12441;SDS011;6285;48.804;9.220;2023-01-16T01:39:39;3.40;;;1.20;;
12441;SDS011;6285;48.804;9.220;2023-01-16T01:42:08;5.55;;;1.30;;
12441;SDS011;6285;48.804;9.220;2023-01-16T01:44:53;2.45;;;1.33;;
12441;SDS011;6285;48.804;9.220;2023-01-16T01:47:22;3.13;;;1.30;;
12441;SDS011;6285;48.804;9.220;2023-01-16T01:49:50;2.40;;;1.10;;
12441;SDS011;6285;48.804;9.220;2023-01-16T01:52:19;3.65;;;1.10;;
12441;SDS011;6285;48.804;9.220;2023-01-16T01:54:48;2.13;;;0.82;;
12441;SDS011;6285;48.804;9.220;2023-01-16T01:57:17;2.95;;;1.25;;
12441;SDS011;6285;48.804;9.220;2023-01-16T01:59:46;3.70;;;1.23;;
12441;SDS011;6285;48.804;9.220;2023-01-16T02:02:16;5.32;;;1.35;;
12441;SDS011;6285;48.804;9.220;2023-01-16T02:04:44;3.53;;;1.10;;
12441;SDS011;6285;48.804;9.220;2023-01-16T02:07:13;3.42;;;1.02;;
12441;SDS011;6285;48.804;9.220;2023-01-16T02:09:43;2.40;;;1.08;;
12441;SDS011;6285;48.804;9.220;2023-01-16T02:12:11;2.95;;;1.20;;
12441;SDS011;6285;48.804;9.220;2023-01-16T02:14:39;1.98;;;1.00;;
12441;SDS011;6285;48.804;9.220;2023-01-16T02:17:07;2.33;;;1.13;;
12441;SDS011;6285;48.804;9.220;2023-01-16T02:19:53;2.05;;;0.98;;
12441;SDS011;6285;48.804;9.220;2023-01-16T02:27:59;3.20;;;0.90;;
12441;SDS011;6285;48.804;9.220;2023-01-16T02:30:35;4.65;;;1.35;;
12441;SDS011;6285;48.804;9.220;2023-01-16T02:33:08;2.75;;;1.30;;
12441;SDS011;6285;48.804;9.220;2023-01-16T02:35:43;4.95;;;1.00;;
12441;SDS011;6285;48.804;9.220;2023-01-16T02:38:13;2.80;;;1.05;;
12441;SDS011;6285;48.804;9.220;2023-01-16T02:40:43;4.43;;;1.17;;
12441;SDS011;6285;48.804;9.220;2023-01-16T02:43:19;1.73;;;1.00;;
12441;SDS011;6285;48.804;9.220;2023-01-16T02:45:47;2.70;;;1.13;;
12441;SDS011;6285;48.804;9.220;2023-01-16T02:48:21;3.22;;;1.10;;
12441;SDS011;6285;48.804;9.220;2023-01-16T02:50:54;1.17;;;1.08;;
12441;SDS011;6285;48.804;9.220;2023-01-16T02:53:22;1.20;;;0.80;;
12441;SDS011;6285;48.804;9.220;2023-01-16T02:55:53;4.78;;;1.30;;
12441;SDS011;6285;48.804;9.220;2023-01-16T02:58:22;1.92;;;1.10;;
12441;SDS011;6285;48.804;9.220;2023-01-16T03:00:50;3.63;;;0.90;;
12441;SDS011;6285;48.804;9.220;2023-01-16T03:03:23;2.15;;;1.02;;
12441;SDS011;6285;48.804;9.220;2023-01-16T03:05:52;3.28;;;1.05;;
12441;SDS011;6285;48.804;9.220;2023-01-16T03:08:30;4.93;;;1.13;;
12441;SDS011;6285;48.804;9.220;2023-01-16T03:11:11;1.88;;;0.88;;
12441;SDS011;6285;48.804;9.220;2023-01-16T03:13:46;2.08;;;1.00;;
12441;SDS011;6285;48.804;9.220;2023-01-16T03:16:19;2.78;;;1.13;;
12441;SDS011;6285;48.804;9.220;2023-01-16T03:18:49;2.47;;;1.13;;
12441;SDS011;6285;48.804;9.220;2023-01-16T03:21:18;2.83;;;1.00;;
12441;SDS011;6285;48.804;9.220;2023-01-16T03:23:50;1.60;;;0.90;;
12441;SDS011;6285;48.804;9.220;2023-01-16T03:26:19;2.40;;;1.13;;
12441;SDS011;6285;48.804;9.220;2023-01-16T03:28:53;2.67;;;0.80;;
12441;SDS011;6285;48.804;9.220;2023-01-16T03:31:24;3.63;;;1.10;;
12441;SDS011;6285;48.804;9.220;2023-01-16T03:33:54;3.95;;;1.60;;
12441;SDS011;6285;48.804;9.220;2023-01-16T03:36:30;1.23;;;0.93;;
12441;SDS011;6285;48.804;9.220;2023-01-16T03:38:58;1.55;;;0.93;;
12441;SDS011;6285;48.804;9.220;2023-01-16T03:41:26;4.57;;;1.23;;
12441;SDS011;6285;48.804;9.220;2023-01-16T03:43:57;1.55;;;1.40;;
12441;SDS011;6285;48.804;9.220;2023-01-16T03:46:26;4.15;;;1.67;;
12441;SDS011;6285;48.804;9.220;2023-01-16T03:48:58;2.83;;;1.50;;
12441;SDS011;6285;48.804;9.220;2023-01-16T03:51:26;3.72;;;1.23;;
12441;SDS011;6285;48.804;9.220;2023-01-16T03:53:57;3.17;;;1.27;;
12441;SDS011;6285;48.804;9.220;2023-01-16T03:56:26;4.20;;;1.10;;
12441;SDS011;6285;48.804;9.220;2023-01-16T03:58:56;3.63;;;1.48;;
12441;SDS011;6285;48.804;9.220;2023-01-16T04:01:25;4.85;;;1.08;;
12441;SDS011;6285;48.804;9.220;2023-01-16T04:03:57;2.95;;;1.35;;
12441;SDS011;6285;48.804;9.220;2023-01-16T04:06:28;2.20;;;1.05;;
12441;SDS011;6285;48.804;9.220;2023-01-16T04:08:56;3.75;;;1.05;;
12441;SDS011;6285;48.804;9.220;2023-01-16T04:11:24;1.42;;;1.05;;
12441;SDS011;6285;48.804;9.220;2023-01-16T04:13:52;4.00;;;1.20;;
12441;SDS011;6285;48.804;9.220;2023-01-16T04:16:21;3.70;;;1.13;;
12441;SDS011;6285;48.804;9.220;2023-01-16T04:18:48;2.00;;;1.27;;
12441;SDS011;6285;48.804;9.220;2023-01-16T04:21:19;4.38;;;1.20;;
12441;SDS011;6285;48.804;9.220;2023-01-16T04:23:51;1.02;;;0.93;;
12441;SDS011;6285;48.804;9.220;2023-01-16T04:26:19;2.60;;;1.20;;
12441;SDS011;6285;48.804;9.220;2023-01-16T04:28:46;1.33;;;1.02;;
12441;SDS011;6285;48.804;9.220;2023-01-16T04:31:18;2.28;;;1.27;;
12441;SDS011;6285;48.804;9.220;2023-01-16T04:33:45;5.10;;;1.38;;
12441;SDS011;6285;48.804;9.220;2023-01-16T04:36:12;2.30;;;1.08;;
12441;SDS011;6285;48.804;9.220;2023-01-16T04:38:40;4.35;;;1.77;;
12441;SDS011;6285;48.804;9.220;2023-01-16T04:41:07;2.85;;;1.50;;
12441;SDS011;6285;48.804;9.220;2023-01-16T04:43:34;4.57;;;1.80;;
12441;SDS011;6285;48.804;9.220;2023-01-16T04:46:01;3.05;;;1.67;;
12441;SDS011;6285;48.804;9.220;2023-01-16T04:48:28;3.75;;;1.60;;
12441;SDS011;6285;48.804;9.220;2023-01-16T04:50:55;4.38;;;1.75;;
12441;SDS011;6285;48.804;9.220;2023-01-16T04:53:22;4.60;;;1.95;;
12441;SDS011;6285;48.804;9.220;2023-01-16T04:55:51;3.60;;;1.77;;
12441;SDS011;6285;48.804;9.220;2023-01-16T04:58:18;3.05;;;1.40;;
12441;SDS011;6285;48.804;9.220;2023-01-16T05:00:45;3.80;;;1.50;;
12441;SDS011;6285;48.804;9.220;2023-01-16T05:03:12;2.95;;;1.27;;
12441;SDS011;6285;48.804;9.220;2023-01-16T05:05:39;2.72;;;1.40;;
12441;SDS011;6285;48.804;9.220;2023-01-16T05:08:06;2.20;;;1.20;;
12441;SDS011;6285;48.804;9.220;2023-01-16T05:10:42;3.10;;;1.20;;
12441;SDS011;6285;48.804;9.220;2023-01-16T05:13:11;4.72;;;1.38;;
12441;SDS011;6285;48.804;9.220;2023-01-16T05:15:38;2.20;;;1.20;;
12441;SDS011;6285;48.804;9.220;2023-01-16T05:18:05;1.77;;;1.00;;
12441;SDS011;6285;48.804;9.220;2023-01-16T05:20:32;2.13;;;1.27;;
12441;SDS011;6285;48.804;9.220;2023-01-16T05:22:59;2.53;;;1.70;;
12441;SDS011;6285;48.804;9.220;2023-01-16T05:25:27;5.70;;;1.58;;
12441;SDS011;6285;48.804;9.220;2023-01-16T05:27:54;4.47;;;1.60;;
12441;SDS011;6285;48.804;9.220;2023-01-16T05:30:22;3.10;;;1.50;;
12441;SDS011;6285;48.804;9.220;2023-01-16T05:32:49;3.72;;;1.55;;
12441;SDS011;6285;48.804;9.220;2023-01-16T05:35:16;4.00;;;1.60;;
12441;SDS011;6285;48.804;9.220;2023-01-16T05:37:44;3.22;;;1.42;;
12441;SDS011;6285;48.804;9.220;2023-01-16T05:40:12;2.30;;;1.35;;
12441;SDS011;6285;48.804;9.220;2023-01-16T05:42:41;3.40;;;1.60;;
12441;SDS011;6285;48.804;9.220;2023-01-16T05:45:08;3.10;;;1.38;;
12441;SDS011;6285;48.804;9.220;2023-01-16T05:47:37;3.95;;;1.60;;
12441;SDS011;6285;48.804;9.220;2023-01-16T05:50:04;2.70;;;1.63;;
12441;SDS011;6285;48.804;9.220;2023-01-16T05:52:31;8.10;;;1.52;;
12441;SDS011;6285;48.804;9.220;2023-01-16T05:54:58;3.45;;;1.85;;
12441;SDS011;6285;48.804;9.220;2023-01-16T05:57:25;3.97;;;1.60;;
12441;SDS011;6285;48.804;9.220;2023-01-16T05:59:54;6.13;;;1.83;;
12441;SDS011;6285;48.804;9.220;2023-01-16T06:02:21;5.20;;;2.28;;
12441;SDS011;6285;48.804;9.220;2023-01-16T06:04:50;5.47;;;2.72;;
12441;SDS011;6285;48.804;9.220;2023-01-16T06:07:17;7.00;;;2.47;;
12441;SDS011;6285;48.804;9.220;2023-01-16T06:09:44;4.25;;;2.05;;
12441;SDS011;6285;48.804;9.220;2023-01-16T06:12:15;7.50;;;3.08;;
12441;SDS011;6285;48.804;9.220;2023-01-16T06:14:44;6.35;;;2.30;;
12441;SDS011;6285;48.804;9.220;2023-01-16T06:17:13;5.45;;;2.03;;
12441;SDS011;6285;48.804;9.220;2023-01-16T06:20:17;3.47;;;2.00;;
12441;SDS011;6285;48.804;9.220;2023-01-16T06:25:48;5.97;;;2.03;;
12441;SDS011;6285;48.804;9.220;2023-01-16T06:28:16;7.57;;;2.40;;
12441;SDS011;6285;48.804;9.220;2023-01-16T06:30:43;5.95;;;2.35;;
12441;SDS011;6285;48.804;9.220;2023-01-16T06:33:10;7.20;;;2.40;;
12441;SDS011;6285;48.804;9.220;2023-01-16T06:35:37;5.57;;;2.50;;
12441;SDS011;6285;48.804;9.220;2023-01-16T06:38:04;7.15;;;2.85;;
12441;SDS011;6285;48.804;9.220;2023-01-16T06:40:31;5.32;;;2.25;;
12441;SDS011;6285;48.804;9.220;2023-01-16T06:42:59;6.03;;;2.38;;
12441;SDS011;6285;48.804;9.220;2023-01-16T06:45:26;4.85;;;2.63;;
12441;SDS011;6285;48.804;9.220;2023-01-16T06:47:53;5.10;;;2.58;;
12441;SDS011;6285;48.804;9.220;2023-01-16T06:50:20;5.25;;;1.92;;
12441;SDS011;6285;48.804;9.220;2023-01-16T06:52:48;3.72;;;2.03;;
12441;SDS011;6285;48.804;9.220;2023-01-16T06:55:15;3.95;;;1.83;;
12441;SDS011;6285;48.804;9.220;2023-01-16T06:57:42;4.80;;;2.13;;
12441;SDS011;6285;48.804;9.220;2023-01-16T07:00:11;3.42;;;1.77;;
12441;SDS011;6285;48.804;9.220;2023-01-16T07:02:39;4.40;;;2.17;;
12441;SDS011;6285;48.804;9.220;2023-01-16T07:05:06;6.22;;;2.33;;
12441;SDS011;6285;48.804;9.220;2023-01-16T07:07:34;6.03;;;2.33;;
12441;SDS011;6285;48.804;9.220;2023-01-16T07:10:01;3.53;;;1.98;;
12441;SDS011;6285;48.804;9.220;2023-01-16T07:12:28;5.78;;;2.50;;
12441;SDS011;6285;48.804;9.220;2023-01-16T07:14:55;4.43;;;1.95;;
12441;SDS011;6285;48.804;9.220;2023-01-16T07:17:41;4.18;;;1.60;;
12441;SDS011;6285;48.804;9.220;2023-01-16T07:20:25;4.43;;;1.92;;
12441;SDS011;6285;48.804;9.220;2023-01-16T07:23:16;5.28;;;1.80;;
12441;SDS011;6285;48.804;9.220;2023-01-16T07:25:45;3.90;;;1.45;;
12441;SDS011;6285;48.804;9.220;2023-01-16T07:28:12;4.93;;;2.00;;
12441;SDS011;6285;48.804;9.220;2023-01-16T07:30:39;3.45;;;1.85;;
12441;SDS011;6285;48.804;9.220;2023-01-16T07:33:07;9.10;;;1.90;;
12441;SDS011;6285;48.804;9.220;2023-01-16T07:35:34;2.92;;;1.65;;
12441;SDS011;6285;48.804;9.220;2023-01-16T07:38:02;2.42;;;1.67;;
12441;SDS011;6285;48.804;9.220;2023-01-16T07:40:30;4.72;;;2.00;;
12441;SDS011;6285;48.804;9.220;2023-01-16T07:42:57;4.85;;;1.85;;
12441;SDS011;6285;48.804;9.220;2023-01-16T07:45:24;5.22;;;2.35;;
12441;SDS011;6285;48.804;9.220;2023-01-16T07:47:51;4.00;;;1.80;;
12441;SDS011;6285;48.804;9.220;2023-01-16T07:50:19;4.05;;;2.22;;
12441;SDS011;6285;48.804;9.220;2023-01-16T07:52:46;3.90;;;1.75;;
12441;SDS011;6285;48.804;9.220;2023-01-16T07:55:13;5.07;;;1.98;;
12441;SDS011;6285;48.804;9.220;2023-01-16T07:57:41;2.75;;;2.00;;
12441;SDS011;6285;48.804;9.220;2023-01-16T08:00:09;4.45;;;1.80;;
12441;SDS011;6285;48.804;9.220;2023-01-16T08:02:36;8.27;;;2.60;;
12441;SDS011;6285;48.804;9.220;2023-01-16T08:05:03;5.30;;;2.10;;
12441;SDS011;6285;48.804;9.220;2023-01-16T08:07:31;5.75;;;2.00;;
12441;SDS011;6285;48.804;9.220;2023-01-16T08:09:58;4.40;;;2.45;;
12441;SDS011;6285;48.804;9.220;2023-01-16T08:12:26;4.93;;;1.90;;
12441;SDS011;6285;48.804;9.220;2023-01-16T08:14:53;2.60;;;1.58;;
12441;SDS011;6285;48.804;9.220;2023-01-16T08:17:20;4.88;;;2.00;;
12441;SDS011;6285;48.804;9.220;2023-01-16T08:19:46;3.78;;;1.48;;
12441;SDS011;6285;48.804;9.220;2023-01-16T08:22:13;3.30;;;1.75;;
12441;SDS011;6285;48.804;9.220;2023-01-16T08:24:42;1.98;;;1.15;;
12441;SDS011;6285;48.804;9.220;2023-01-16T08:27:08;4.57;;;1.60;;
12441;SDS011;6285;48.804;9.220;2023-01-16T08:29:36;2.03;;;1.25;;
12441;SDS011;6285;48.804;9.220;2023-01-16T08:32:03;3.67;;;1.33;;
12441;SDS011;6285;48.804;9.220;2023-01-16T08:34:30;3.20;;;1.20;;
12441;SDS011;6285;48.804;9.220;2023-01-16T08:36:57;2.08;;;1.38;;
12441;SDS011;6285;48.804;9.220;2023-01-16T08:39:24;3.20;;;1.70;;
12441;SDS011;6285;48.804;9.220;2023-01-16T08:41:53;4.43;;;1.80;;
12441;SDS011;6285;48.804;9.220;2023-01-16T08:44:38;5.05;;;1.30;;
12441;SDS011;6285;48.804;9.220;2023-01-16T08:47:23;5.82;;;1.75;;
12441;SDS011;6285;48.804;9.220;2023-01-16T08:50:09;3.70;;;1.30;;
12441;SDS011;6285;48.804;9.220;2023-01-16T08:52:55;4.22;;;1.23;;
12441;SDS011;6285;48.804;9.220;2023-01-16T08:55:22;3.33;;;1.63;;
12441;SDS011;6285;48.804;9.220;2023-01-16T08:57:50;2.65;;;1.42;;
12441;SDS011;6285;48.804;9.220;2023-01-16T09:00:17;3.22;;;1.20;;
12441;SDS011;6285;48.804;9.220;2023-01-16T09:02:45;4.50;;;1.50;;
12441;SDS011;6285;48.804;9.220;2023-01-16T09:05:12;2.22;;;1.08;;
12441;SDS011;6285;48.804;9.220;2023-01-16T09:07:39;3.55;;;1.30;;
12441;SDS011;6285;48.804;9.220;2023-01-16T09:10:07;4.85;;;1.50;;
12441;SDS011;6285;48.804;9.220;2023-01-16T09:12:34;3.70;;;1.40;;
12441;SDS011;6285;48.804;9.220;2023-01-16T09:15:21;4.57;;;1.67;;
12441;SDS011;6285;48.804;9.220;2023-01-16T09:17:48;4.25;;;1.38;;
12441;SDS011;6285;48.804;9.220;2023-01-16T09:20:15;3.60;;;1.52;;
12441;SDS011;6285;48.804;9.220;2023-01-16T09:22:42;3.45;;;1.42;;
12441;SDS011;6285;48.804;9.220;2023-01-16T09:25:09;3.95;;;1.52;;
12441;SDS011;6285;48.804;9.220;2023-01-16T09:27:36;4.28;;;1.63;;
12441;SDS011;6285;48.804;9.220;2023-01-16T09:30:04;4.55;;;1.50;;
12441;SDS011;6285;48.804;9.220;2023-01-16T09:32:32;5.00;;;1.80;;
12441;SDS011;6285;48.804;9.220;2023-01-16T09:34:59;5.03;;;1.30;;
12441;SDS011;6285;48.804;9.220;2023-01-16T09:37:26;3.90;;;1.40;;
12441;SDS011;6285;48.804;9.220;2023-01-16T09:39:53;2.60;;;0.90;;
12441;SDS011;6285;48.804;9.220;2023-01-16T09:42:28;2.50;;;1.05;;
12441;SDS011;6285;48.804;9.220;2023-01-16T09:45:15;3.33;;;0.90;;
12441;SDS011;6285;48.804;9.220;2023-01-16T09:47:47;4.13;;;1.27;;
12441;SDS011;6285;48.804;9.220;2023-01-16T09:50:19;2.28;;;1.50;;
12441;SDS011;6285;48.804;9.220;2023-01-16T09:52:47;2.25;;;1.30;;
12441;SDS011;6285;48.804;9.220;2023-01-16T09:55:34;3.90;;;1.70;;
12441;SDS011;6285;48.804;9.220;2023-01-16T09:58:21;4.22;;;1.95;;
12441;SDS011;6285;48.804;9.220;2023-01-16T10:01:01;3.65;;;1.30;;
12441;SDS011;6285;48.804;9.220;2023-01-16T10:03:30;2.03;;;1.33;;
12441;SDS011;6285;48.804;9.220;2023-01-16T10:05:59;2.80;;;1.30;;
12441;SDS011;6285;48.804;9.220;2023-01-16T10:08:30;2.20;;;1.10;;
12441;SDS011;6285;48.804;9.220;2023-01-16T10:10:58;1.77;;;1.10;;
12441;SDS011;6285;48.804;9.220;2023-01-16T10:13:35;3.97;;;1.23;;
12441;SDS011;6285;48.804;9.220;2023-01-16T10:16:07;2.58;;;1.10;;
12441;SDS011;6285;48.804;9.220;2023-01-16T10:18:40;2.60;;;0.90;;
12441;SDS011;6285;48.804;9.220;2023-01-16T10:21:21;2.15;;;0.80;;
12441;SDS011;6285;48.804;9.220;2023-01-16T10:23:52;2.05;;;0.93;;
12441;SDS011;6285;48.804;9.220;2023-01-16T10:26:22;1.80;;;0.85;;
12441;SDS011;6285;48.804;9.220;2023-01-16T10:28:52;2.42;;;0.80;;
12441;SDS011;6285;48.804;9.220;2023-01-16T10:31:24;2.88;;;1.00;;
12441;SDS011;6285;48.804;9.220;2023-01-16T10:33:56;1.45;;;0.80;;
12441;SDS011;6285;48.804;9.220;2023-01-16T10:36:26;2.25;;;0.70;;
12441;SDS011;6285;48.804;9.220;2023-01-16T10:38:57;3.10;;;1.15;;
12441;SDS011;6285;48.804;9.220;2023-01-16T10:41:26;1.80;;;0.95;;
12441;SDS011;6285;48.804;9.220;2023-01-16T10:44:18;2.00;;;1.02;;
12441;SDS011;6285;48.804;9.220;2023-01-16T10:47:07;2.40;;;0.88;;
12441;SDS011;6285;48.804;9.220;2023-01-16T10:49:54;1.15;;;0.70;;
12441;SDS011;6285;48.804;9.220;2023-01-16T10:52:21;1.05;;;0.60;;
12441;SDS011;6285;48.804;9.220;2023-01-16T10:54:49;1.00;;;0.90;;
12441;SDS011;6285;48.804;9.220;2023-01-16T10:57:18;3.00;;;0.90;;
12441;SDS011;6285;48.804;9.220;2023-01-16T10:59:45;1.35;;;0.85;;
12441;SDS011;6285;48.804;9.220;2023-01-16T11:02:15;2.88;;;0.70;;
12441;SDS011;6285;48.804;9.220;2023-01-16T11:04:44;0.90;;;0.70;;
12441;SDS011;6285;48.804;9.220;2023-01-16T11:07:13;2.75;;;0.88;;
12441;SDS011;6285;48.804;9.220;2023-01-16T11:09:42;0.95;;;0.75;;
12441;SDS011;6285;48.804;9.220;2023-01-16T11:12:10;1.20;;;0.73;;
12441;SDS011;6285;48.804;9.220;2023-01-16T11:14:56;0.60;;;0.60;;
12441;SDS011;6285;48.804;9.220;2023-01-16T11:17:41;2.97;;;1.38;;
12441;SDS011;6285;48.804;9.220;2023-01-16T11:20:35;3.03;;;1.15;;
12441;SDS011;6285;48.804;9.220;2023-01-16T11:23:05;4.10;;;1.10;;
12441;SDS011;6285;48.804;9.220;2023-01-16T11:25:38;4.00;;;1.70;;
12441;SDS011;6285;48.804;9.220;2023-01-16T11:28:06;2.45;;;1.17;;
12441;SDS011;6285;48.804;9.220;2023-01-16T11:30:36;2.50;;;1.45;;
12441;SDS011;6285;48.804;9.220;2023-01-16T11:33:04;1.77;;;1.38;;
12441;SDS011;6285;48.804;9.220;2023-01-16T11:35:34;1.10;;;1.00;;
12441;SDS011;6285;48.804;9.220;2023-01-16T11:38:02;1.50;;;1.15;;
12441;SDS011;6285;48.804;9.220;2023-01-16T11:40:35;2.10;;;1.23;;
12441;SDS011;6285;48.804;9.220;2023-01-16T11:43:06;4.45;;;2.63;;
12441;SDS011;6285;48.804;9.220;2023-01-16T11:45:54;2.42;;;1.10;;
12441;SDS011;6285;48.804;9.220;2023-01-16T11:48:33;4.40;;;1.20;;
12441;SDS011;6285;48.804;9.220;2023-01-16T11:51:01;2.05;;;1.23;;
12441;SDS011;6285;48.804;9.220;2023-01-16T11:53:29;2.58;;;1.15;;
12441;SDS011;6285;48.804;9.220;2023-01-16T11:56:17;2.60;;;1.15;;
12441;SDS011;6285;48.804;9.220;2023-01-16T11:58:50;1.52;;;1.00;;
12441;SDS011;6285;48.804;9.220;2023-01-16T12:01:19;1.00;;;0.80;;
12441;SDS011;6285;48.804;9.220;2023-01-16T12:03:54;3.90;;;0.93;;
12441;SDS011;6285;48.804;9.220;2023-01-16T12:06:38;0.70;;;0.70;;
12441;SDS011;6285;48.804;9.220;2023-01-16T12:09:16;1.23;;;0.80;;
12441;SDS011;6285;48.804;9.220;2023-01-16T12:11:53;2.53;;;1.58;;
12441;SDS011;6285;48.804;9.220;2023-01-16T12:14:46;10.02;;;3.95;;
12441;SDS011;6285;48.804;9.220;2023-01-16T12:17:16;2.75;;;1.52;;
12441;SDS011;6285;48.804;9.220;2023-01-16T12:19:51;11.10;;;4.88;;
12441;SDS011;6285;48.804;9.220;2023-01-16T12:22:21;1.10;;;0.80;;
12441;SDS011;6285;48.804;9.220;2023-01-16T12:24:53;3.88;;;2.30;;
12441;SDS011;6285;48.804;9.220;2023-01-16T12:27:28;2.75;;;1.92;;
12441;SDS011;6285;48.804;9.220;2023-01-16T12:29:59;1.52;;;1.20;;
12441;SDS011;6285;48.804;9.220;2023-01-16T12:32:37;1.85;;;1.08;;
12441;SDS011;6285;48.804;9.220;2023-01-16T12:35:27;2.65;;;1.73;;
12441;SDS011;6285;48.804;9.220;2023-01-16T12:38:04;2.33;;;1.15;;
12441;SDS011;6285;48.804;9.220;2023-01-16T12:40:37;1.20;;;0.88;;
12441;SDS011;6285;48.804;9.220;2023-01-16T12:43:14;0.75;;;0.75;;
12441;SDS011;6285;48.804;9.220;2023-01-16T12:45:44;1.88;;;0.93;;
12441;SDS011;6285;48.804;9.220;2023-01-16T12:48:27;1.20;;;0.50;;
12441;SDS011;6285;48.804;9.220;2023-01-16T12:51:00;2.17;;;1.23;;
12441;SDS011;6285;48.804;9.220;2023-01-16T12:53:36;4.88;;;2.30;;
12441;SDS011;6285;48.804;9.220;2023-01-16T12:56:09;5.15;;;2.28;;
12441;SDS011;6285;48.804;9.220;2023-01-16T12:58:39;6.60;;;3.10;;
12441;SDS011;6285;48.804;9.220;2023-01-16T13:01:10;2.80;;;1.73;;
12441;SDS011;6285;48.804;9.220;2023-01-16T13:03:39;3.40;;;1.77;;
12441;SDS011;6285;48.804;9.220;2023-01-16T13:06:08;2.50;;;1.33;;
12441;SDS011;6285;48.804;9.220;2023-01-16T13:08:42;2.17;;;1.35;;
12441;SDS011;6285;48.804;9.220;2023-01-16T13:11:10;2.97;;;1.45;;
12441;SDS011;6285;48.804;9.220;2023-01-16T13:13:59;6.38;;;2.60;;
12441;SDS011;6285;48.804;9.220;2023-01-16T13:16:29;4.35;;;2.17;;
12441;SDS011;6285;48.804;9.220;2023-01-16T13:18:58;5.65;;;1.58;;
12441;SDS011;6285;48.804;9.220;2023-01-16T13:21:27;2.75;;;0.80;;
12441;SDS011;6285;48.804;9.220;2023-01-16T13:23:56;2.72;;;0.50;;
12441;SDS011;6285;48.804;9.220;2023-01-16T13:26:25;0.80;;;0.40;;
12441;SDS011;6285;48.804;9.220;2023-01-16T13:28:54;2.50;;;0.68;;
12441;SDS011;6285;48.804;9.220;2023-01-16T13:31:27;1.85;;;0.70;;
12441;SDS011;6285;48.804;9.220;2023-01-16T13:33:56;0.93;;;0.60;;
12441;SDS011;6285;48.804;9.220;2023-01-16T13:36:39;0.70;;;0.60;;
12441;SDS011;6285;48.804;9.220;2023-01-16T13:39:28;0.43;;;0.43;;
12441;SDS011;6285;48.804;9.220;2023-01-16T13:41:59;1.00;;;0.60;;
12441;SDS011;6285;48.804;9.220;2023-01-16T13:44:28;2.78;;;0.60;;
12441;SDS011;6285;48.804;9.220;2023-01-16T13:47:17;1.17;;;0.88;;
12441;SDS011;6285;48.804;9.220;2023-01-16T13:49:47;1.48;;;1.02;;
12441;SDS011;6285;48.804;9.220;2023-01-16T13:52:16;4.32;;;2.42;;
12441;SDS011;6285;48.804;9.220;2023-01-16T13:54:44;0.70;;;0.70;;
12441;SDS011;6285;48.804;9.220;2023-01-16T13:57:14;1.63;;;0.60;;
12441;SDS011;6285;48.804;9.220;2023-01-16T13:59:44;0.68;;;0.55;;
12441;SDS011;6285;48.804;9.220;2023-01-16T14:02:38;2.53;;;0.70;;
12441;SDS011;6285;48.804;9.220;2023-01-16T14:05:20;0.77;;;0.40;;
12441;SDS011;6285;48.804;9.220;2023-01-16T14:07:50;1.30;;;0.82;;
12441;SDS011;6285;48.804;9.220;2023-01-16T14:10:39;0.50;;;0.50;;
12441;SDS011;6285;48.804;9.220;2023-01-16T14:13:13;2.92;;;0.65;;
12441;SDS011;6285;48.804;9.220;2023-01-16T14:15:46;0.50;;;0.50;;
12441;SDS011;6285;48.804;9.220;2023-01-16T14:18:38;1.02;;;0.73;;
12441;SDS011;6285;48.804;9.220;2023-01-16T14:21:09;0.70;;;0.60;;
12441;SDS011;6285;48.804;9.220;2023-01-16T14:23:37;0.73;;;0.60;;
12441;SDS011;6285;48.804;9.220;2023-01-16T14:26:25;1.70;;;0.65;;
12441;SDS011;6285;48.804;9.220;2023-01-16T14:28:56;1.63;;;0.60;;
12441;SDS011;6285;48.804;9.220;2023-01-16T14:31:27;0.85;;;0.68;;
12441;SDS011;6285;48.804;9.220;2023-01-16T14:33:56;0.60;;;0.60;;
12441;SDS011;6285;48.804;9.220;2023-01-16T14:36:24;0.88;;;0.55;;
12441;SDS011;6285;48.804;9.220;2023-01-16T14:38:51;0.43;;;0.40;;
12441;SDS011;6285;48.804;9.220;2023-01-16T14:41:22;0.75;;;0.40;;
12441;SDS011;6285;48.804;9.220;2023-01-16T14:44:12;0.90;;;0.52;;
12441;SDS011;6285;48.804;9.220;2023-01-16T14:47:11;0.80;;;0.60;;
12441;SDS011;6285;48.804;9.220;2023-01-16T14:50:08;1.40;;;1.20;;
12441;SDS011;6285;48.804;9.220;2023-01-16T14:53:02;0.77;;;0.73;;
12441;SDS011;6285;48.804;9.220;2023-01-16T14:55:49;1.38;;;0.60;;
12441;SDS011;6285;48.804;9.220;2023-01-16T14:58:22;0.88;;;0.50;;
12441;SDS011;6285;48.804;9.220;2023-01-16T15:00:55;0.50;;;0.50;;
12441;SDS011;6285;48.804;9.220;2023-01-16T15:03:44;0.77;;;0.68;;
12441;SDS011;6285;48.804;9.220;2023-01-16T15:06:13;1.67;;;0.90;;
12441;SDS011;6285;48.804;9.220;2023-01-16T15:08:41;2.70;;;0.68;;
12441;SDS011;6285;48.804;9.220;2023-01-16T15:11:12;1.85;;;1.20;;
12441;SDS011;6285;48.804;9.220;2023-01-16T15:14:12;4.53;;;2.47;;
12441;SDS011;6285;48.804;9.220;2023-01-16T15:17:00;3.00;;;2.00;;
12441;SDS011;6285;48.804;9.220;2023-01-16T15:20:05;8.65;;;3.83;;
12441;SDS011;6285;48.804;9.220;2023-01-16T15:23:00;11.43;;;4.60;;
12441;SDS011;6285;48.804;9.220;2023-01-16T15:25:35;3.47;;;2.08;;
12441;SDS011;6285;48.804;9.220;2023-01-16T15:28:12;4.20;;;2.03;;
12441;SDS011;6285;48.804;9.220;2023-01-16T15:30:45;0.95;;;0.75;;
12441;SDS011;6285;48.804;9.220;2023-01-16T15:33:21;0.60;;;0.60;;
12441;SDS011;6285;48.804;9.220;2023-01-16T15:36:09;1.10;;;0.60;;